Time;durP1;ratioP1;P1;durP2;ratioP2;P2;SDS_P1;SDS_P2;PMS_P1;PMS_P2;Temp;Humidity;BMP_temperature;BMP_pressure;BME280_temperature;BME280_humidity;BME280_pressure;Samples;Min_cycle;Max_cycle;Signal;HPM_P1;HPM_P2
2021/10/25 00:01:06;;;;;;;11.93;9.93;;;;;;;9.30;60.89;101132.72;5012404;28;20053;-75
2021/10/25 00:03:32;;;;;;;12.73;9.77;;;;;;;9.60;60.69;101167.97;5012222;28;20026;-75
2021/10/25 00:05:58;;;;;;;9.98;8.95;;;;;;;9.46;60.52;101138.34;5012252;28;20384;-74
2021/10/25 00:08:23;;;;;;;10.50;9.35;;;;;;;9.54;60.48;101140.31;5012315;28;20083;-75
2021/10/25 00:10:49;;;;;;;11.55;8.98;;;;;;;9.14;60.19;101063.84;5012262;28;20445;-76
2021/10/25 00:13:15;;;;;;;15.95;9.50;;;;;;;9.20;60.38;101073.84;5012053;28;20029;-75
2021/10/25 00:15:40;;;;;;;13.60;9.40;;;;;;;9.51;60.32;101124.75;5012003;28;20018;-74
2021/10/25 00:18:06;;;;;;;14.18;9.88;;;;;;;9.66;59.95;101157.75;5011998;28;20454;-75
2021/10/25 00:20:32;;;;;;;14.55;9.85;;;;;;;9.60;60.35;101147.69;5011886;28;20022;-76
2021/10/25 00:22:57;;;;;;;13.38;8.95;;;;;;;9.65;60.35;101152.56;5012089;28;20091;-75
2021/10/25 00:25:23;;;;;;;11.68;9.35;;;;;;;9.69;60.34;101151.38;5012047;28;20057;-75
2021/10/25 00:27:48;;;;;;;12.48;9.18;;;;;;;9.65;60.29;101163.97;5011971;28;20025;-76
2021/10/25 00:30:14;;;;;;;11.77;9.20;;;;;;;9.12;60.52;101085.03;5011822;28;20093;-75
2021/10/25 00:32:40;;;;;;;11.50;8.52;;;;;;;9.29;60.59;101109.13;5011950;28;20033;-75
2021/10/25 00:35:06;;;;;;;11.13;9.32;;;;;;;9.45;60.55;101141.09;5011907;28;20014;-75
2021/10/25 00:37:31;;;;;;;13.23;9.45;;;;;;;9.43;60.67;101145.69;5011623;28;20052;-75
2021/10/25 00:39:57;;;;;;;12.52;9.90;;;;;;;9.27;60.79;101130.34;5011705;28;20061;-76
2021/10/25 00:42:23;;;;;;;11.35;9.18;;;;;;;9.42;60.47;101150.13;5011650;28;20441;-75
2021/10/25 00:44:48;;;;;;;14.40;9.73;;;;;;;9.37;60.44;101148.84;5011804;28;20068;-75
2021/10/25 00:47:14;;;;;;;12.73;9.23;;;;;;;9.28;60.51;101142.53;5011627;28;20108;-75
2021/10/25 00:49:39;;;;;;;13.30;8.93;;;;;;;9.31;60.60;101152.00;4993915;28;20103;-76
2021/10/25 00:52:05;;;;;;;11.75;8.50;;;;;;;9.07;60.60;101110.94;5011654;28;20022;-75
2021/10/25 00:54:33;;;;;;;13.85;8.90;;;;;;;9.36;60.28;101150.63;5011745;28;20022;-75
2021/10/25 00:56:59;;;;;;;11.65;8.57;;;;;;;9.00;59.83;101087.91;5011584;28;20088;-76
2021/10/25 00:59:24;;;;;;;13.20;8.52;;;;;;;9.34;60.20;101143.81;5011600;28;20522;-75
2021/10/25 01:01:50;;;;;;;14.10;9.00;;;;;;;9.28;60.16;101147.81;5011669;28;20022;-75
2021/10/25 01:04:19;;;;;;;15.20;10.02;;;;;;;9.11;60.43;101133.44;5011499;28;20029;-75
2021/10/25 01:06:47;;;;;;;13.05;8.93;;;;;;;9.05;60.06;101138.38;5011598;28;20069;-76
2021/10/25 01:09:13;;;;;;;11.60;9.48;;;;;;;8.43;60.45;101054.91;5011366;28;20021;-76
2021/10/25 01:11:41;;;;;;;9.75;8.50;;;;;;;9.05;60.21;101154.19;5011366;28;20422;-75
2021/10/25 01:14:06;;;;;;;10.63;8.65;;;;;;;8.99;60.64;101150.28;5011500;28;20053;-75
2021/10/25 01:16:32;;;;;;;12.75;8.05;;;;;;;8.86;60.19;101132.00;5011332;28;20053;-75
2021/10/25 01:18:58;;;;;;;14.40;8.75;;;;;;;8.87;60.61;101146.84;5011592;28;20021;-75
2021/10/25 01:21:23;;;;;;;11.25;8.38;;;;;;;8.79;60.35;101141.38;5011323;28;20051;-76
2021/10/25 01:23:50;;;;;;;13.52;9.48;;;;;;;8.70;60.85;101143.94;5011450;28;20384;-75
2021/10/25 01:26:16;;;;;;;11.15;9.00;;;;;;;8.49;60.68;101125.47;5011385;28;20021;-75
2021/10/25 01:28:41;;;;;;;12.90;9.10;;;;;;;8.43;60.90;101136.50;5011456;28;20169;-75
2021/10/25 01:31:07;;;;;;;12.30;9.57;;;;;;;8.58;61.08;101157.16;5011344;28;20025;-75
2021/10/25 01:33:34;;;;;;;12.15;9.05;;;;;;;8.24;60.43;101100.31;5011268;28;20037;-75
2021/10/25 01:36:02;;;;;;;11.52;8.57;;;;;;;8.52;60.88;101155.03;5011263;28;20033;-74
2021/10/25 01:38:28;;;;;;;13.40;9.32;;;;;;;8.52;60.66;101159.44;5011180;28;20033;-75
2021/10/25 01:40:53;;;;;;;11.43;9.18;;;;;;;8.39;60.79;101125.41;5011215;28;20021;-75
2021/10/25 01:43:19;;;;;;;12.60;8.50;;;;;;;8.56;60.95;101166.13;5011092;28;20025;-75
2021/10/25 01:45:45;;;;;;;10.30;8.15;;;;;;;8.46;60.42;101160.78;5011196;28;20022;-75
2021/10/25 01:48:11;;;;;;;10.45;8.07;;;;;;;8.50;60.84;101156.94;4993171;28;20494;-74
2021/10/25 01:50:37;;;;;;;11.85;7.68;;;;;;;8.43;61.18;101158.41;5010748;28;20088;-76
2021/10/25 01:53:04;;;;;;;11.40;7.78;;;;;;;8.38;60.70;101157.09;5011073;28;20021;-75
2021/10/25 01:55:30;;;;;;;12.45;8.30;;;;;;;8.37;60.54;101168.59;5011062;28;20033;-75
2021/10/25 01:57:56;;;;;;;11.35;8.40;;;;;;;8.38;61.02;101165.00;5011282;28;20101;-76
2021/10/25 02:00:22;;;;;;;10.90;7.95;;;;;;;7.89;60.69;101087.34;5011186;28;20101;-75
2021/10/25 02:02:47;;;;;;;8.43;7.15;;;;;;;8.08;60.76;101120.88;5010774;28;20022;-75
2021/10/25 02:05:13;;;;;;;10.80;7.55;;;;;;;7.79;61.11;101073.25;5013859;28;20029;-75
2021/10/25 02:07:38;;;;;;;11.55;7.90;;;;;;;8.26;61.27;101154.47;5014365;28;20029;-75
2021/10/25 02:10:05;;;;;;;11.25;7.68;;;;;;;8.35;60.91;101166.09;4996704;28;20018;-75
2021/10/25 02:12:31;;;;;;;10.77;7.68;;;;;;;8.40;60.63;101169.19;5014380;28;20120;-75
2021/10/25 02:14:56;;;;;;;7.80;6.30;;;;;;;8.39;60.29;101164.88;5014358;28;20465;-75
2021/10/25 02:17:22;;;;;;;9.02;6.85;;;;;;;7.90;60.66;101089.84;5014239;28;20553;-76
2021/10/25 02:19:50;;;;;;;10.00;6.90;;;;;;;8.21;60.46;101148.75;5014137;28;20097;-75
2021/10/25 02:22:15;;;;;;;10.32;6.95;;;;;;;8.34;60.64;101176.75;4996647;28;20413;-75
2021/10/25 02:24:43;;;;;;;11.00;7.95;;;;;;;8.04;61.05;101130.81;5014365;28;20046;-75
2021/10/25 02:27:08;;;;;;;11.52;7.30;;;;;;;8.34;60.59;101167.03;4996548;28;20213;-75
2021/10/25 02:29:37;;;;;;;10.30;7.32;;;;;;;8.02;60.87;101116.97;5013952;28;20133;-74
2021/10/25 02:32:04;;;;;;;12.57;8.57;;;;;;;8.24;60.61;101169.56;5014059;28;20052;-75
2021/10/25 02:34:31;;;;;;;10.82;7.90;;;;;;;8.24;60.93;101168.72;5014071;28;20079;-75
2021/10/25 02:36:57;;;;;;;10.63;7.78;;;;;;;8.24;60.71;101163.47;5014164;28;20022;-75
2021/10/25 02:39:24;;;;;;;9.45;7.22;;;;;;;7.96;60.35;101128.81;5014012;28;20033;-75
2021/10/25 02:41:50;;;;;;;9.73;7.53;;;;;;;8.21;61.03;101174.22;5013889;28;20506;-74
2021/10/25 02:44:15;;;;;;;12.50;8.90;;;;;;;7.68;60.65;101096.94;5013638;28;20029;-75
2021/10/25 02:46:41;;;;;;;12.45;8.10;;;;;;;8.14;60.49;101176.47;5013614;28;20037;-75
2021/10/25 02:49:06;;;;;;;14.40;8.95;;;;;;;7.75;60.36;101119.16;5013738;28;20029;-75
2021/10/25 02:51:32;;;;;;;10.15;7.70;;;;;;;8.05;61.04;101152.69;5013686;28;20400;-75
2021/10/25 02:53:57;;;;;;;10.50;8.57;;;;;;;7.61;60.66;101096.59;5013829;28;20029;-74
2021/10/25 02:56:23;;;;;;;10.13;8.05;;;;;;;7.75;60.61;101106.00;5013795;28;20026;-75
2021/10/25 02:58:49;;;;;;;10.40;7.70;;;;;;;7.49;60.92;101081.78;5013546;28;20021;-76
2021/10/25 03:01:14;;;;;;;11.60;8.40;;;;;;;7.49;61.08;101087.88;5013459;28;20029;-75
2021/10/25 03:03:40;;;;;;;11.60;7.07;;;;;;;7.94;60.51;101154.41;5013544;28;20495;-75
2021/10/25 03:06:05;;;;;;;10.43;8.10;;;;;;;7.79;60.82;101131.09;5013472;28;20056;-74
2021/10/25 03:08:30;;;;;;;10.85;8.00;;;;;;;7.90;61.03;101158.22;5013635;28;20474;-75
2021/10/25 03:10:56;;;;;;;8.40;7.03;;;;;;;7.94;60.49;101162.28;5013344;28;20030;-76
2021/10/25 03:13:22;;;;;;;9.48;7.47;;;;;;;7.69;61.27;101122.28;5013328;28;20491;-75
2021/10/25 03:15:48;;;;;;;10.85;7.45;;;;;;;7.94;61.14;101175.44;5012181;28;20148;-75
2021/10/25 03:18:14;;;;;;;9.95;7.20;;;;;;;7.43;61.10;101117.25;4995575;28;20034;-75
2021/10/25 03:20:41;;;;;;;14.15;6.88;;;;;;;7.63;61.15;101139.38;5013064;28;20042;-75
2021/10/25 03:23:07;;;;;;;11.68;7.95;;;;;;;7.82;61.32;101173.78;5013273;28;20029;-75
2021/10/25 03:25:33;;;;;;;10.85;8.07;;;;;;;7.50;61.22;101131.59;5013059;28;20467;-75
2021/10/25 03:27:58;;;;;;;9.80;7.10;;;;;;;7.82;60.61;101162.41;5013067;28;20060;-75
2021/10/25 03:30:24;;;;;;;10.10;7.30;;;;;;;7.86;61.12;101164.69;4995244;28;20466;-75
2021/10/25 03:32:50;;;;;;;13.68;8.20;;;;;;;7.93;60.76;101175.56;5012787;28;20558;-75
2021/10/25 03:35:16;;;;;;;11.23;8.02;;;;;;;7.86;61.23;101177.00;5012716;28;20036;-75
2021/10/25 03:37:41;;;;;;;12.52;8.35;;;;;;;7.57;60.94;101132.78;5012823;28;20026;-75
2021/10/25 03:40:08;;;;;;;11.25;8.35;;;;;;;7.81;60.79;101168.63;5012943;28;20029;-75
2021/10/25 03:42:41;;;;;;;11.63;7.93;;;;;;;7.70;61.23;101155.50;5012935;28;20104;-75
2021/10/25 03:45:35;;;;;;;10.43;7.00;;;;;;;7.76;61.11;101174.25;5012639;28;20534;-75
2021/10/25 03:48:02;;;;;;;11.80;8.45;;;;;;;7.70;61.28;101179.16;5012032;28;20077;-76
2021/10/25 03:50:31;;;;;;;12.52;8.60;;;;;;;7.39;61.06;101126.31;5012352;28;20033;-75
2021/10/25 03:53:15;;;;;;;13.60;9.15;;;;;;;7.42;61.10;101149.72;5012591;28;20036;-74
2021/10/25 03:55:51;;;;;;;11.30;8.63;;;;;;;7.45;61.68;101151.31;5012583;28;20025;-75
2021/10/25 04:30:11;;;;;;;20.15;13.60;;;;;;;7.45;61.53;101182.84;5011915;28;20483;-75
2021/10/25 04:32:36;;;;;;;18.98;13.32;;;;;;;7.41;61.40;101170.88;4994259;28;20057;-75
2021/10/25 04:35:03;;;;;;;21.17;14.38;;;;;;;7.14;61.13;101130.00;5011600;28;20064;-74
2021/10/25 04:37:28;;;;;;;20.90;14.82;;;;;;;6.84;61.50;101079.81;5011590;28;20088;-75
2021/10/25 04:39:53;;;;;;;16.60;13.40;;;;;;;7.39;61.44;101173.59;5011730;28;20030;-75
2021/10/25 04:42:20;;;;;;;20.13;13.68;;;;;;;6.85;61.15;101095.44;5011830;28;20029;-75
2021/10/25 04:44:47;;;;;;;22.45;14.35;;;;;;;7.40;61.40;101204.19;5011780;28;20064;-75
2021/10/25 04:47:13;;;;;;;22.05;12.85;;;;;;;7.38;61.63;101189.50;5011666;28;20549;-75
2021/10/25 04:49:40;;;;;;;18.35;12.50;;;;;;;7.29;61.50;101175.25;5011293;28;20084;-75
2021/10/25 04:52:06;;;;;;;20.20;13.95;;;;;;;6.96;61.58;101118.25;5011509;28;20029;-75
2021/10/25 04:54:31;;;;;;;24.98;14.35;;;;;;;7.15;61.65;101150.03;5011528;28;20104;-75
2021/10/25 04:56:57;;;;;;;24.60;17.23;;;;;;;7.48;61.23;101198.38;5011549;28;20502;-75
2021/10/25 04:59:23;;;;;;;24.83;17.88;;;;;;;7.52;60.61;101194.56;5011664;28;20092;-75
2021/10/25 05:01:49;;;;;;;33.83;16.63;;;;;;;7.44;61.24;101192.53;5011530;28;20021;-75
2021/10/25 05:04:15;;;;;;;23.27;16.48;;;;;;;7.42;60.76;101183.88;5011343;28;20026;-75
2021/10/25 05:06:40;;;;;;;24.45;17.42;;;;;;;6.77;60.55;101087.31;4993850;28;20025;-74
2021/10/25 05:09:06;;;;;;;27.70;18.58;;;;;;;7.39;60.86;101212.19;5011371;28;20034;-74
2021/10/25 05:11:31;;;;;;;30.23;19.90;;;;;;;7.14;61.58;101164.13;5011505;28;20030;-75
2021/10/25 05:13:57;;;;;;;35.17;22.20;;;;;;;7.36;61.95;101218.50;5011315;28;20426;-74
2021/10/25 05:16:23;;;;;;;34.10;22.67;;;;;;;7.07;61.60;101175.22;4993646;28;20056;-75
2021/10/25 05:18:48;;;;;;;32.90;21.88;;;;;;;7.13;61.34;101178.22;4993691;28;20486;-75
2021/10/25 05:21:14;;;;;;;25.83;19.05;;;;;;;6.91;61.09;101150.13;5011151;28;20038;-75
2021/10/25 05:23:39;;;;;;;26.67;19.83;;;;;;;7.41;61.58;101220.78;5011048;28;20494;-75
2021/10/25 05:26:05;;;;;;;26.65;18.73;;;;;;;7.39;61.34;101212.19;5011044;28;20029;-74
2021/10/25 05:28:30;;;;;;;23.20;17.23;;;;;;;7.54;60.99;101232.91;4993537;28;20450;-75
2021/10/25 05:30:56;;;;;;;27.27;19.35;;;;;;;7.45;60.76;101203.88;5011068;28;20030;-76
2021/10/25 05:33:21;;;;;;;24.88;18.00;;;;;;;7.30;60.98;101176.94;5011126;28;20083;-75
2021/10/25 05:35:46;;;;;;;27.88;20.33;;;;;;;7.72;60.94;101235.06;5011187;28;20080;-75
2021/10/25 05:38:13;;;;;;;35.05;22.83;;;;;;;7.80;60.23;101240.59;5011044;28;20026;-75
2021/10/25 05:40:39;;;;;;;33.40;21.73;;;;;;;7.78;60.33;101253.00;5014750;28;20542;-75
2021/10/25 05:43:06;;;;;;;30.67;21.15;;;;;;;7.77;61.02;101238.19;5015305;28;20109;-75
2021/10/25 05:45:32;;;;;;;34.50;24.45;;;;;;;7.78;60.87;101247.75;5014993;28;20036;-75
2021/10/25 05:47:58;;;;;;;32.90;22.08;;;;;;;7.76;60.52;101218.94;5014794;28;20026;-75
2021/10/25 05:50:23;;;;;;;28.35;19.98;;;;;;;7.84;60.83;101244.66;5012080;28;20486;-75
2021/10/25 05:52:49;;;;;;;34.22;24.17;;;;;;;7.21;60.22;101136.44;5013680;28;20116;-74
2021/10/25 05:55:21;;;;;;;34.22;23.40;;;;;;;7.70;60.41;101213.31;5013102;28;20041;-75
2021/10/25 05:57:46;;;;;;;34.33;23.80;;;;;;;7.86;60.85;101243.56;5014432;28;20116;-74
2021/10/25 06:00:13;;;;;;;35.70;23.98;;;;;;;8.00;60.57;101260.91;5014525;28;20104;-75
2021/10/25 06:02:38;;;;;;;38.63;26.70;;;;;;;8.05;60.18;101260.56;5014423;28;20040;-75
2021/10/25 06:05:06;;;;;;;39.53;27.33;;;;;;;7.95;60.53;101232.34;5014568;28;20460;-74
2021/10/25 06:07:32;;;;;;;40.78;26.40;;;;;;;8.13;60.43;101263.41;5014495;28;20037;-75
2021/10/25 06:09:58;;;;;;;44.00;29.00;;;;;;;8.10;60.35;101261.03;5014369;28;20022;-75
2021/10/25 06:12:25;;;;;;;44.75;31.42;;;;;;;8.15;60.79;101256.25;5014313;28;20033;-74
2021/10/25 06:14:52;;;;;;;48.67;32.38;;;;;;;8.23;60.59;101253.88;5013904;28;20022;-76
2021/10/25 06:17:23;;;;;;;50.13;28.83;;;;;;;8.02;60.92;101230.06;5026762;28;20493;-75
2021/10/25 06:19:49;;;;;;;36.65;22.05;;;;;;;7.76;60.88;101182.13;5033780;28;20029;-75
2021/10/25 06:22:18;;;;;;;35.92;23.48;;;;;;;7.96;60.48;101227.91;5034028;28;20044;-75
2021/10/25 06:24:44;;;;;;;31.63;21.17;;;;;;;8.29;60.70;101274.44;5033819;28;20482;-75
2021/10/25 06:27:10;;;;;;;32.03;22.50;;;;;;;8.16;60.43;101257.91;5033656;28;20034;-75
2021/10/25 06:29:35;;;;;;;33.33;22.25;;;;;;;8.39;61.06;101274.59;5033606;28;20035;-74
2021/10/25 06:32:01;;;;;;;30.95;23.48;;;;;;;8.28;60.38;101243.81;5033691;28;20040;-75
2021/10/25 06:34:33;;;;;;;29.95;23.40;;;;;;;8.62;60.42;101284.13;5033831;28;20068;-75
2021/10/25 06:36:58;;;;;;;30.38;22.52;;;;;;;8.73;60.83;101301.69;5033437;28;20504;-74
2021/10/25 06:39:30;;;;;;;33.88;22.88;;;;;;;8.75;60.70;101284.81;5012495;28;20062;-74
2021/10/25 06:41:56;;;;;;;35.42;23.15;;;;;;;8.86;60.84;101290.03;5004660;28;20498;-75
2021/10/25 06:44:22;;;;;;;36.47;26.25;;;;;;;8.72;60.67;101268.41;5011767;28;20026;-74
2021/10/25 06:46:48;;;;;;;32.83;23.10;;;;;;;8.87;60.84;101289.06;5010959;28;20121;-75
2021/10/25 06:49:14;;;;;;;34.55;22.00;;;;;;;8.80;60.68;101266.00;5012430;28;20422;-76
2021/10/25 06:51:39;;;;;;;35.72;24.70;;;;;;;9.09;60.70;101287.34;5009030;28;20038;-74
2021/10/25 06:54:06;;;;;;;34.85;24.92;;;;;;;8.72;60.59;101227.13;5012977;28;20092;-75
2021/10/25 06:56:32;;;;;;;36.70;24.05;;;;;;;9.30;60.16;101295.28;5012280;28;20088;-75
2021/10/25 06:58:57;;;;;;;34.08;23.08;;;;;;;8.69;59.95;101185.22;5011102;28;20509;-75
2021/10/25 07:01:25;;;;;;;31.33;21.48;;;;;;;9.32;60.25;101294.19;5013008;28;20022;-74
2021/10/25 07:03:52;;;;;;;30.05;19.98;;;;;;;9.24;60.09;101263.22;5004461;28;20065;-75
2021/10/25 07:06:17;;;;;;;26.77;17.15;;;;;;;9.41;59.97;101284.69;4983030;28;20030;-75
2021/10/25 07:08:44;;;;;;;26.58;16.85;;;;;;;8.85;59.77;101176.91;5012952;28;20029;-74
2021/10/25 07:11:12;;;;;;;25.10;14.95;;;;;;;9.49;59.70;101272.53;4998872;28;20076;-75
2021/10/25 07:13:44;;;;;;;23.30;15.52;;;;;;;9.59;59.70;101274.41;5011679;28;20034;-75
2021/10/25 08:07:52;;;;;;;11.38;6.47;;;;;;;11.14;56.62;101258.97;5006772;28;20082;-75
2021/10/25 08:10:22;;;;;;;7.70;6.18;;;;;;;11.24;56.28;101245.78;5011406;28;20040;-75
2021/10/25 08:12:53;;;;;;;7.85;6.00;;;;;;;10.78;56.06;101152.16;5009661;28;20044;-75
2021/10/25 08:15:26;;;;;;;10.10;6.22;;;;;;;11.32;56.28;101231.84;5009277;28;20084;-76
2021/10/25 08:17:56;;;;;;;10.15;6.95;;;;;;;11.52;55.38;101225.53;4990756;28;20129;-75
2021/10/25 08:20:21;;;;;;;8.82;6.32;;;;;;;11.04;54.86;101141.00;5007306;28;20018;-75
2021/10/25 08:22:47;;;;;;;7.70;6.43;;;;;;;11.51;54.70;101221.22;5011762;28;20100;-76
2021/10/25 08:25:12;;;;;;;10.15;6.70;;;;;;;11.43;54.22;101174.34;4992071;28;20038;-81
2021/10/25 08:27:39;;;;;;;9.50;6.95;;;;;;;11.42;54.22;101153.31;5007211;28;20034;-81
2021/10/25 08:30:06;;;;;;;12.95;7.10;;;;;;;11.74;53.80;101195.25;4986327;28;20069;-80
2021/10/25 08:40:39;;;;;;;12.77;9.55;;;;;;;12.21;53.05;101232.31;5000071;28;20033;-80
2021/10/25 08:43:06;;;;;;;12.85;8.70;;;;;;;12.28;52.91;101230.72;5008940;28;20018;-80
2021/10/25 08:45:35;;;;;;;10.93;7.13;;;;;;;12.37;53.26;101227.19;4983562;28;20124;-81
2021/10/25 08:48:02;;;;;;;13.90;8.32;;;;;;;12.48;52.92;101223.50;5006421;28;20041;-81
2021/10/25 08:50:35;;;;;;;11.20;8.40;;;;;;;12.03;52.56;101139.59;5007172;28;20026;-81
2021/10/25 08:53:04;;;;;;;11.35;7.57;;;;;;;12.25;51.96;101157.72;5011138;28;20033;-81
2021/10/25 08:55:30;;;;;;;9.00;6.25;;;;;;;12.72;52.04;101229.09;4993471;28;20034;-81
2021/10/25 08:57:55;;;;;;;8.07;5.43;;;;;;;12.69;50.95;101210.84;4993633;28;20032;-80
2021/10/25 09:00:49;;;;;;;9.88;6.55;;;;;;;12.83;51.04;101222.72;5009470;28;20104;-81
2021/10/25 09:03:15;;;;;;;19.90;11.48;;;;;;;12.90;50.72;101221.13;4997368;28;20025;-80
2021/10/25 09:05:52;;;;;;;10.73;6.45;;;;;;;12.82;50.36;101197.19;4998130;28;20036;-80
2021/10/25 09:08:17;;;;;;;10.85;7.15;;;;;;;12.88;50.22;101197.44;5010360;28;20033;-80
2021/10/25 09:10:45;;;;;;;11.88;6.50;;;;;;;12.58;49.69;101150.09;5008342;28;20033;-80
2021/10/25 09:13:28;;;;;;;9.40;6.32;;;;;;;12.85;49.17;101199.56;5009216;28;20096;-80
2021/10/25 09:16:00;;;;;;;10.70;6.53;;;;;;;13.06;50.19;101221.28;5003810;28;20515;-80
2021/10/25 09:18:26;;;;;;;10.18;6.47;;;;;;;13.21;48.73;101217.13;5011658;28;20065;-80
2021/10/25 09:20:55;;;;;;;7.82;4.78;;;;;;;13.27;47.93;101211.19;4990908;28;20112;-80
2021/10/25 09:23:40;;;;;;;9.25;5.40;;;;;;;13.32;47.07;101205.41;5006171;28;20215;-76
2021/10/25 09:26:13;;;;;;;9.48;5.97;;;;;;;13.34;47.72;101196.31;4996624;28;20040;-76
2021/10/25 09:28:45;;;;;;;9.73;5.20;;;;;;;12.86;47.68;101109.28;5005945;28;20029;-76
2021/10/25 09:31:18;;;;;;;8.52;6.20;;;;;;;13.47;47.54;101181.84;5013951;28;20026;-76
2021/10/25 09:33:53;;;;;;;9.55;5.78;;;;;;;13.65;47.36;101199.34;4984126;28;20065;-76
2021/10/25 09:36:19;;;;;;;12.45;7.50;;;;;;;13.31;47.25;101121.53;4988334;28;20409;-75
2021/10/25 09:49:04;;;;;;;12.77;6.45;;;;;;;14.11;45.47;101183.13;5001275;28;20041;-76
2021/10/25 09:51:29;;;;;;;23.98;16.75;;;;;;;14.01;45.49;101154.03;5011537;28;20149;-76
2021/10/25 09:53:59;;;;;;;26.73;19.77;;;;;;;13.78;45.31;101100.69;4994399;28;20069;-77
2021/10/25 09:56:43;;;;;;;9.25;6.00;;;;;;;13.87;44.90;101105.03;5005869;28;20152;-76
2021/10/25 10:01:36;;;;;;;9.63;6.07;;;;;;;14.45;44.24;101168.00;5003830;28;20022;-76
2021/10/25 10:04:06;;;;;;;10.05;5.72;;;;;;;14.15;43.99;101107.47;5012067;28;20022;-76
2021/10/25 10:06:32;;;;;;;9.52;6.03;;;;;;;14.58;44.04;101151.56;5001831;28;20041;-76
2021/10/25 10:08:59;;;;;;;8.30;5.18;;;;;;;14.24;43.89;101086.06;5014175;28;20037;-76
2021/10/25 10:11:25;;;;;;;13.40;6.80;;;;;;;14.13;44.04;101075.75;5033932;28;20414;-76
2021/10/25 10:13:51;;;;;;;7.93;6.00;;;;;;;14.25;44.08;101101.00;5004914;28;20129;-76
2021/10/25 10:16:17;;;;;;;10.23;5.90;;;;;;;14.34;44.41;101096.53;4994110;28;20077;-74
2021/10/25 10:18:49;;;;;;;9.50;5.57;;;;;;;14.60;44.56;101130.97;5013945;28;20033;-76
2021/10/25 10:21:16;;;;;;;10.68;5.15;;;;;;;14.69;44.48;101116.69;5006017;28;20116;-76
2021/10/25 10:23:54;;;;;;;10.30;5.70;;;;;;;14.85;44.12;101123.81;4994240;28;20044;-77
2021/10/25 10:26:20;;;;;;;12.02;7.47;;;;;;;14.91;44.08;101116.03;5007174;28;20048;-76
2021/10/25 10:28:51;;;;;;;7.70;6.07;;;;;;;14.95;43.94;101111.22;5004673;28;20121;-76
2021/10/25 10:31:24;;;;;;;10.85;6.43;;;;;;;15.03;43.72;101110.38;4999578;28;20073;-77
2021/10/25 10:33:55;;;;;;;9.40;6.22;;;;;;;15.10;43.56;101098.06;5005069;28;20080;-77
2021/10/25 10:36:21;;;;;;;9.48;5.95;;;;;;;15.14;43.31;101110.03;4993958;28;20108;-76
2021/10/25 10:38:54;;;;;;;8.60;5.07;;;;;;;15.05;43.01;101095.06;4980095;28;20034;-75
2021/10/25 10:41:36;;;;;;;8.18;4.60;;;;;;;15.06;42.37;101096.72;5005915;28;20033;-76
2021/10/25 10:44:07;;;;;;;6.95;4.65;;;;;;;15.07;42.51;101087.75;4983476;28;20717;-76
2021/10/25 10:46:49;;;;;;;8.90;5.82;;;;;;;14.73;42.33;101035.59;4995348;28;20026;-76
2021/10/25 10:49:41;;;;;;;9.73;6.60;;;;;;;15.02;42.20;101084.78;4993655;28;20026;-76
2021/10/25 10:52:37;;;;;;;10.57;7.43;;;;;;;14.42;40.85;101013.34;5003279;28;20042;-76
2021/10/25 10:55:25;;;;;;;10.02;4.97;;;;;;;14.79;42.46;101087.28;5011673;28;20036;-77
2021/10/25 11:00:40;;;;;;;7.68;5.88;;;;;;;14.85;41.91;101066.16;5013199;28;20072;-76
2021/10/25 11:03:17;;;;;;;6.18;4.20;;;;;;;14.94;40.39;101067.00;5012011;28;20421;-76
2021/10/25 11:05:45;;;;;;;11.48;8.05;;;;;;;14.65;41.31;101001.03;4993198;28;20048;-76
2021/10/25 11:08:11;;;;;;;9.32;5.38;;;;;;;14.93;41.09;101030.75;5012415;28;20510;-76
2021/10/25 11:10:41;;;;;;;16.13;3.95;;;;;;;15.09;40.18;101045.84;5003883;28;20404;-75
2021/10/25 11:13:22;;;;;;;5.80;3.40;;;;;;;14.72;39.82;100978.09;5002255;28;20025;-75
2021/10/25 11:16:00;;;;;;;6.93;3.87;;;;;;;15.22;38.29;101046.16;5000925;28;20104;-75
2021/10/25 11:18:28;;;;;;;6.68;3.95;;;;;;;15.23;40.14;101045.97;5011620;28;20040;-76
2021/10/25 11:21:11;;;;;;;6.90;4.95;;;;;;;15.30;39.97;101058.59;4995347;28;20064;-77
2021/10/25 11:23:47;;;;;;;6.55;3.85;;;;;;;15.34;39.96;101054.59;5012449;28;20418;-76
2021/10/25 11:26:17;;;;;;;6.38;3.95;;;;;;;15.26;40.15;101050.13;4995015;28;20038;-75
2021/10/25 11:29:11;;;;;;;9.82;4.28;;;;;;;14.84;39.55;101015.78;5012505;28;20033;-75
2021/10/25 11:31:53;;;;;;;6.70;4.25;;;;;;;14.84;40.63;101043.22;5012337;28;20398;-76
2021/10/25 11:34:29;;;;;;;5.68;4.07;;;;;;;14.69;40.46;101039.59;5012419;28;20032;-75
2021/10/25 11:37:11;;;;;;;5.82;4.07;;;;;;;14.57;40.87;101032.97;5010477;28;20461;-76
2021/10/25 11:39:41;;;;;;;;;;;;;;;14.44;40.60;101030.81;5012855;28;20514;-77
2021/10/25 11:42:09;;;;;;;8.10;4.65;;;;;;;14.15;41.27;100953.41;4992925;28;19949;-75
2021/10/25 11:44:35;;;;;;;8.15;4.07;;;;;;;14.43;40.92;100978.66;4991683;28;20534;-75
2021/10/25 11:47:00;;;;;;;5.97;4.00;;;;;;;14.12;40.95;100951.06;4992861;28;20042;-75
2021/10/25 11:49:27;;;;;;;5.50;3.97;;;;;;;13.99;40.53;100923.19;4992440;28;20040;-76
2021/10/25 11:51:55;;;;;;;7.45;3.70;;;;;;;14.54;40.60;101012.03;4992364;28;20034;-76
2021/10/25 11:54:22;;;;;;;4.43;3.38;;;;;;;14.57;40.75;101009.88;4992301;28;20101;-76
2021/10/25 11:56:50;;;;;;;4.80;3.40;;;;;;;14.13;40.13;100923.53;4990907;28;20026;-76
2021/10/25 11:59:17;;;;;;;6.80;4.10;;;;;;;14.21;40.59;100931.50;4992357;28;20482;-76
2021/10/25 12:01:43;;;;;;;9.40;4.65;;;;;;;14.56;40.69;101012.69;4992434;28;20022;-76
2021/10/25 12:04:09;;;;;;;5.95;3.97;;;;;;;14.50;40.32;100982.31;4992297;28;20491;-75
2021/10/25 12:06:34;;;;;;;7.68;4.93;;;;;;;14.09;40.50;100936.28;5003422;28;20022;-75
2021/10/25 12:09:02;;;;;;;8.10;3.63;;;;;;;14.47;40.23;101005.72;5012008;28;20036;-76
2021/10/25 12:12:03;;;;;;;7.68;3.95;;;;;;;14.13;40.21;100952.75;5011567;28;20018;-75
2021/10/25 12:14:31;;;;;;;7.03;4.07;;;;;;;13.85;40.54;100901.78;5011101;28;20064;-76
2021/10/25 12:16:58;;;;;;;9.15;3.80;;;;;;;14.04;40.79;100935.13;4997574;28;20030;-76
2021/10/25 12:19:25;;;;;;;11.13;5.90;;;;;;;14.50;41.06;101008.03;5026868;28;20104;-77
2021/10/25 12:21:51;;;;;;;7.25;4.88;;;;;;;13.98;40.64;100918.84;5008096;28;20513;-76
2021/10/25 12:24:19;;;;;;;6.18;4.80;;;;;;;14.49;40.69;100985.97;5011447;28;20026;-75
2021/10/25 12:26:45;;;;;;;8.82;4.32;;;;;;;14.40;40.87;100988.75;5005556;28;20503;-76
2021/10/25 12:29:16;;;;;;;8.43;6.22;;;;;;;14.49;40.58;100999.25;4999440;28;20022;-75
2021/10/25 12:31:42;;;;;;;9.45;7.25;;;;;;;14.41;40.93;100993.91;4999995;28;20076;-76
2021/10/25 12:34:07;;;;;;;7.40;5.20;;;;;;;14.52;40.80;100998.06;4995754;28;20514;-76
2021/10/25 12:36:39;;;;;;;7.88;4.22;;;;;;;14.16;40.94;100937.31;4997136;28;20112;-76
2021/10/25 12:39:16;;;;;;;6.00;5.18;;;;;;;14.45;40.85;100987.28;4992010;28;20034;-76
2021/10/25 12:41:57;;;;;;;5.38;4.03;;;;;;;14.46;40.40;100991.59;4999832;28;20045;-76
2021/10/25 12:44:25;;;;;;;7.10;4.63;;;;;;;14.23;41.04;100937.47;4993913;28;20022;-76
2021/10/25 12:46:54;;;;;;;8.23;4.25;;;;;;;14.08;41.07;100905.41;5011464;28;20033;-76
2021/10/25 12:49:21;;;;;;;6.97;4.38;;;;;;;14.53;40.41;100975.81;5010478;28;20499;-76
2021/10/25 12:51:47;;;;;;;7.05;4.18;;;;;;;14.46;40.64;100970.34;5003703;28;20022;-76
2021/10/25 12:54:14;;;;;;;5.47;4.45;;;;;;;14.47;40.75;100963.22;4999435;28;20469;-76
2021/10/25 12:56:40;;;;;;;7.72;4.28;;;;;;;13.99;40.57;100886.00;5006592;28;20121;-76
2021/10/25 12:59:09;;;;;;;14.35;4.10;;;;;;;14.42;40.04;100945.09;5009796;28;20034;-76
2021/10/25 13:01:36;;;;;;;4.97;3.78;;;;;;;14.41;40.23;100943.41;5008135;28;20021;-76
2021/10/25 13:04:03;;;;;;;6.88;4.22;;;;;;;14.33;39.91;100932.81;4993431;28;20026;-76
2021/10/25 13:06:33;;;;;;;4.40;3.53;;;;;;;14.34;40.13;100934.47;5003328;28;20538;-75
2021/10/25 13:09:08;;;;;;;5.68;4.28;;;;;;;14.61;40.17;100979.28;5002035;28;20521;-76
2021/10/25 13:11:34;;;;;;;7.95;4.32;;;;;;;14.46;39.75;100951.75;5010162;28;20036;-75
2021/10/25 13:14:00;;;;;;;6.05;4.80;;;;;;;14.33;39.86;100919.53;5011088;28;20053;-75